sensor_id;sensor_type;location;lat;lon;timestamp;P1;durP1;ratioP1;P2;durP2;ratioP2
6434;SDS011;3250;42.694;23.278;2023-03-01T00:01:05;4.53;;;3.10;;
6434;SDS011;3250;42.694;23.278;2023-03-01T00:03:32;4.28;;;3.08;;
6434;SDS011;3250;42.694;23.278;2023-03-01T00:05:58;3.90;;;2.85;;
6434;SDS011;3250;42.694;23.278;2023-03-01T00:08:24;3.53;;;3.03;;
6434;SDS011;3250;42.694;23.278;2023-03-01T00:10:59;5.23;;;3.77;;
6434;SDS011;3250;42.694;23.278;2023-03-01T00:13:31;21.13;;;14.10;;
6434;SDS011;3250;42.694;23.278;2023-03-01T00:15:56;26.38;;;17.50;;
6434;SDS011;3250;42.694;23.278;2023-03-01T00:18:22;26.13;;;18.00;;
6434;SDS011;3250;42.694;23.278;2023-03-01T00:20:54;23.27;;;17.23;;
6434;SDS011;3250;42.694;23.278;2023-03-01T00:23:22;18.40;;;14.30;;
6434;SDS011;3250;42.694;23.278;2023-03-01T00:25:47;22.92;;;14.20;;
6434;SDS011;3250;42.694;23.278;2023-03-01T00:28:13;15.98;;;12.98;;
6434;SDS011;3250;42.694;23.278;2023-03-01T00:30:39;14.13;;;11.73;;
6434;SDS011;3250;42.694;23.278;2023-03-01T00:33:04;8.75;;;7.68;;
6434;SDS011;3250;42.694;23.278;2023-03-01T00:35:31;9.33;;;7.10;;
6434;SDS011;3250;42.694;23.278;2023-03-01T00:37:57;9.38;;;7.07;;
6434;SDS011;3250;42.694;23.278;2023-03-01T00:40:23;7.67;;;6.20;;
6434;SDS011;3250;42.694;23.278;2023-03-01T00:42:49;8.98;;;5.57;;
6434;SDS011;3250;42.694;23.278;2023-03-01T00:45:15;7.47;;;5.10;;
6434;SDS011;3250;42.694;23.278;2023-03-01T00:47:40;9.02;;;5.43;;
6434;SDS011;3250;42.694;23.278;2023-03-01T00:50:06;5.97;;;3.90;;
6434;SDS011;3250;42.694;23.278;2023-03-01T00:52:32;6.65;;;3.50;;
6434;SDS011;3250;42.694;23.278;2023-03-01T00:54:57;5.20;;;3.37;;
6434;SDS011;3250;42.694;23.278;2023-03-01T00:57:23;4.87;;;3.30;;
6434;SDS011;3250;42.694;23.278;2023-03-01T00:59:49;6.45;;;3.65;;
6434;SDS011;3250;42.694;23.278;2023-03-01T01:02:14;4.50;;;3.10;;
6434;SDS011;3250;42.694;23.278;2023-03-01T01:04:40;3.73;;;2.87;;
6434;SDS011;3250;42.694;23.278;2023-03-01T01:07:06;4.20;;;2.65;;
6434;SDS011;3250;42.694;23.278;2023-03-01T01:09:31;2.63;;;2.28;;
6434;SDS011;3250;42.694;23.278;2023-03-01T01:11:56;2.43;;;2.23;;
6434;SDS011;3250;42.694;23.278;2023-03-01T01:14:22;2.43;;;2.20;;
6434;SDS011;3250;42.694;23.278;2023-03-01T01:16:47;2.23;;;2.00;;
6434;SDS011;3250;42.694;23.278;2023-03-01T01:19:13;2.35;;;2.15;;
6434;SDS011;3250;42.694;23.278;2023-03-01T01:21:39;3.10;;;2.15;;
6434;SDS011;3250;42.694;23.278;2023-03-01T01:24:07;2.80;;;2.25;;
6434;SDS011;3250;42.694;23.278;2023-03-01T01:26:33;2.13;;;1.93;;
6434;SDS011;3250;42.694;23.278;2023-03-01T01:29:00;2.20;;;2.00;;
6434;SDS011;3250;42.694;23.278;2023-03-01T01:31:26;2.10;;;1.90;;
6434;SDS011;3250;42.694;23.278;2023-03-01T01:33:53;2.10;;;1.77;;
6434;SDS011;3250;42.694;23.278;2023-03-01T01:36:19;2.00;;;1.73;;
6434;SDS011;3250;42.694;23.278;2023-03-01T01:38:46;2.08;;;1.88;;
6434;SDS011;3250;42.694;23.278;2023-03-01T01:41:11;1.63;;;1.53;;
6434;SDS011;3250;42.694;23.278;2023-03-01T01:43:42;1.85;;;1.75;;
6434;SDS011;3250;42.694;23.278;2023-03-01T01:49:02;1.98;;;1.80;;
6434;SDS011;3250;42.694;23.278;2023-03-01T01:51:32;1.75;;;1.65;;
6434;SDS011;3250;42.694;23.278;2023-03-01T01:54:11;2.13;;;1.55;;
6434;SDS011;3250;42.694;23.278;2023-03-01T01:56:55;1.92;;;1.83;;
6434;SDS011;3250;42.694;23.278;2023-03-01T01:59:28;4.05;;;1.90;;
6434;SDS011;3250;42.694;23.278;2023-03-01T02:01:56;1.40;;;1.30;;
6434;SDS011;3250;42.694;23.278;2023-03-01T02:04:25;1.70;;;1.60;;
6434;SDS011;3250;42.694;23.278;2023-03-01T02:06:57;1.60;;;1.50;;
6434;SDS011;3250;42.694;23.278;2023-03-01T02:09:26;2.08;;;1.30;;
6434;SDS011;3250;42.694;23.278;2023-03-01T02:11:52;1.30;;;1.20;;
6434;SDS011;3250;42.694;23.278;2023-03-01T02:14:19;2.15;;;1.48;;
6434;SDS011;3250;42.694;23.278;2023-03-01T02:16:44;1.10;;;1.10;;
6434;SDS011;3250;42.694;23.278;2023-03-01T02:19:13;1.50;;;1.40;;
6434;SDS011;3250;42.694;23.278;2023-03-01T02:22:03;1.10;;;1.10;;
6434;SDS011;3250;42.694;23.278;2023-03-01T02:27:05;1.23;;;1.13;;
6434;SDS011;3250;42.694;23.278;2023-03-01T02:29:30;1.30;;;1.20;;
6434;SDS011;3250;42.694;23.278;2023-03-01T02:31:56;1.42;;;1.33;;
6434;SDS011;3250;42.694;23.278;2023-03-01T02:34:25;2.13;;;1.20;;
6434;SDS011;3250;42.694;23.278;2023-03-01T02:37:01;1.40;;;1.30;;
6434;SDS011;3250;42.694;23.278;2023-03-01T02:39:42;1.60;;;1.50;;
6434;SDS011;3250;42.694;23.278;2023-03-01T02:42:13;1.80;;;1.40;;
6434;SDS011;3250;42.694;23.278;2023-03-01T02:44:41;1.50;;;1.40;;
6434;SDS011;3250;42.694;23.278;2023-03-01T02:47:07;1.60;;;1.50;;
6434;SDS011;3250;42.694;23.278;2023-03-01T02:49:34;1.80;;;1.70;;
6434;SDS011;3250;42.694;23.278;2023-03-01T02:57:29;2.58;;;1.88;;
6434;SDS011;3250;42.694;23.278;2023-03-01T02:59:57;1.80;;;1.70;;
6434;SDS011;3250;42.694;23.278;2023-03-01T03:02:33;2.00;;;1.90;;
6434;SDS011;3250;42.694;23.278;2023-03-01T03:05:10;1.73;;;1.63;;
6434;SDS011;3250;42.694;23.278;2023-03-01T03:07:49;2.10;;;1.90;;
6434;SDS011;3250;42.694;23.278;2023-03-01T03:10:16;2.00;;;1.80;;
6434;SDS011;3250;42.694;23.278;2023-03-01T03:12:54;2.08;;;1.92;;
6434;SDS011;3250;42.694;23.278;2023-03-01T03:15:22;2.43;;;2.10;;
6434;SDS011;3250;42.694;23.278;2023-03-01T03:17:49;3.13;;;1.83;;
6434;SDS011;3250;42.694;23.278;2023-03-01T03:20:16;2.30;;;1.93;;
6434;SDS011;3250;42.694;23.278;2023-03-01T03:22:46;4.03;;;2.30;;
6434;SDS011;3250;42.694;23.278;2023-03-01T03:25:12;2.40;;;2.20;;
6434;SDS011;3250;42.694;23.278;2023-03-01T03:27:39;2.50;;;2.20;;
6434;SDS011;3250;42.694;23.278;2023-03-01T03:30:06;4.07;;;2.00;;
6434;SDS011;3250;42.694;23.278;2023-03-01T03:32:37;2.20;;;2.00;;
6434;SDS011;3250;42.694;23.278;2023-03-01T03:35:04;2.45;;;2.25;;
6434;SDS011;3250;42.694;23.278;2023-03-01T03:37:35;2.60;;;2.40;;
6434;SDS011;3250;42.694;23.278;2023-03-01T03:40:20;2.67;;;2.47;;
6434;SDS011;3250;42.694;23.278;2023-03-01T03:42:45;2.63;;;2.33;;
6434;SDS011;3250;42.694;23.278;2023-03-01T03:45:11;2.85;;;2.53;;
6434;SDS011;3250;42.694;23.278;2023-03-01T03:47:37;3.15;;;2.33;;
6434;SDS011;3250;42.694;23.278;2023-03-01T03:50:02;3.13;;;2.40;;
6434;SDS011;3250;42.694;23.278;2023-03-01T03:52:27;2.88;;;2.33;;
6434;SDS011;3250;42.694;23.278;2023-03-01T03:54:53;2.85;;;2.20;;
6434;SDS011;3250;42.694;23.278;2023-03-01T03:57:18;2.30;;;2.10;;
6434;SDS011;3250;42.694;23.278;2023-03-01T03:59:43;2.90;;;2.40;;
6434;SDS011;3250;42.694;23.278;2023-03-01T04:02:09;2.37;;;2.17;;
6434;SDS011;3250;42.694;23.278;2023-03-01T04:04:34;2.65;;;2.42;;
6434;SDS011;3250;42.694;23.278;2023-03-01T04:07:00;2.40;;;2.08;;
6434;SDS011;3250;42.694;23.278;2023-03-01T04:09:25;3.58;;;2.47;;
6434;SDS011;3250;42.694;23.278;2023-03-01T04:11:50;3.53;;;2.88;;
6434;SDS011;3250;42.694;23.278;2023-03-01T04:14:16;3.03;;;2.63;;
6434;SDS011;3250;42.694;23.278;2023-03-01T04:16:41;2.70;;;2.50;;
6434;SDS011;3250;42.694;23.278;2023-03-01T04:19:07;2.75;;;2.55;;
6434;SDS011;3250;42.694;23.278;2023-03-01T04:21:34;2.92;;;2.63;;
6434;SDS011;3250;42.694;23.278;2023-03-01T04:24:01;2.60;;;2.40;;
6434;SDS011;3250;42.694;23.278;2023-03-01T04:26:28;3.03;;;2.50;;
6434;SDS011;3250;42.694;23.278;2023-03-01T04:28:54;2.47;;;2.00;;
6434;SDS011;3250;42.694;23.278;2023-03-01T04:31:19;2.60;;;2.40;;
6434;SDS011;3250;42.694;23.278;2023-03-01T04:33:47;3.53;;;2.42;;
6434;SDS011;3250;42.694;23.278;2023-03-01T04:36:16;2.50;;;2.30;;
6434;SDS011;3250;42.694;23.278;2023-03-01T04:38:43;2.55;;;2.20;;
6434;SDS011;3250;42.694;23.278;2023-03-01T04:41:12;2.70;;;2.50;;
6434;SDS011;3250;42.694;23.278;2023-03-01T04:43:38;5.78;;;2.60;;
6434;SDS011;3250;42.694;23.278;2023-03-01T04:46:04;3.10;;;2.20;;
6434;SDS011;3250;42.694;23.278;2023-03-01T04:48:34;2.78;;;2.05;;
6434;SDS011;3250;42.694;23.278;2023-03-01T04:51:01;2.40;;;2.10;;
6434;SDS011;3250;42.694;23.278;2023-03-01T04:53:28;3.20;;;2.15;;
6434;SDS011;3250;42.694;23.278;2023-03-01T04:55:54;2.50;;;2.30;;
6434;SDS011;3250;42.694;23.278;2023-03-01T04:58:21;2.95;;;2.20;;
6434;SDS011;3250;42.694;23.278;2023-03-01T05:00:50;3.53;;;2.22;;
6434;SDS011;3250;42.694;23.278;2023-03-01T05:03:16;3.60;;;2.35;;
6434;SDS011;3250;42.694;23.278;2023-03-01T05:05:43;2.30;;;2.10;;
6434;SDS011;3250;42.694;23.278;2023-03-01T05:08:09;2.65;;;2.38;;
6434;SDS011;3250;42.694;23.278;2023-03-01T05:10:42;7.38;;;2.45;;
6434;SDS011;3250;42.694;23.278;2023-03-01T05:13:11;3.25;;;2.28;;
6434;SDS011;3250;42.694;23.278;2023-03-01T05:15:38;3.10;;;2.80;;
6434;SDS011;3250;42.694;23.278;2023-03-01T05:18:04;2.55;;;2.35;;
6434;SDS011;3250;42.694;23.278;2023-03-01T05:20:32;3.47;;;1.97;;
6434;SDS011;3250;42.694;23.278;2023-03-01T05:23:01;4.23;;;2.73;;
6434;SDS011;3250;42.694;23.278;2023-03-01T05:25:30;3.45;;;2.70;;
6434;SDS011;3250;42.694;23.278;2023-03-01T05:28:00;3.00;;;2.70;;
6434;SDS011;3250;42.694;23.278;2023-03-01T05:30:29;8.85;;;2.70;;
6434;SDS011;3250;42.694;23.278;2023-03-01T05:32:56;2.93;;;2.63;;
6434;SDS011;3250;42.694;23.278;2023-03-01T05:35:21;2.73;;;2.40;;
6434;SDS011;3250;42.694;23.278;2023-03-01T05:37:47;3.03;;;2.53;;
6434;SDS011;3250;42.694;23.278;2023-03-01T05:40:17;4.40;;;2.72;;
6434;SDS011;3250;42.694;23.278;2023-03-01T05:42:45;3.20;;;2.50;;
6434;SDS011;3250;42.694;23.278;2023-03-01T05:45:16;4.20;;;2.80;;
6434;SDS011;3250;42.694;23.278;2023-03-01T05:47:43;5.10;;;3.28;;
6434;SDS011;3250;42.694;23.278;2023-03-01T05:50:14;5.20;;;3.60;;
6434;SDS011;3250;42.694;23.278;2023-03-01T05:52:45;3.85;;;3.10;;
6434;SDS011;3250;42.694;23.278;2023-03-01T05:55:13;6.00;;;3.80;;
6434;SDS011;3250;42.694;23.278;2023-03-01T05:57:39;5.72;;;3.30;;
6434;SDS011;3250;42.694;23.278;2023-03-01T06:00:04;4.50;;;3.40;;
6434;SDS011;3250;42.694;23.278;2023-03-01T06:02:31;3.70;;;2.97;;
6434;SDS011;3250;42.694;23.278;2023-03-01T06:04:56;3.97;;;3.00;;
6434;SDS011;3250;42.694;23.278;2023-03-01T06:07:22;4.07;;;3.15;;
6434;SDS011;3250;42.694;23.278;2023-03-01T06:09:47;3.97;;;2.80;;
6434;SDS011;3250;42.694;23.278;2023-03-01T06:12:13;3.70;;;2.97;;
6434;SDS011;3250;42.694;23.278;2023-03-01T06:14:38;4.23;;;2.63;;
6434;SDS011;3250;42.694;23.278;2023-03-01T06:17:04;3.92;;;2.78;;
6434;SDS011;3250;42.694;23.278;2023-03-01T06:19:29;3.83;;;2.93;;
6434;SDS011;3250;42.694;23.278;2023-03-01T06:21:54;2.70;;;2.43;;
6434;SDS011;3250;42.694;23.278;2023-03-01T06:24:20;3.70;;;2.90;;
6434;SDS011;3250;42.694;23.278;2023-03-01T06:26:45;3.08;;;2.78;;
6434;SDS011;3250;42.694;23.278;2023-03-01T06:29:10;3.50;;;2.90;;
6434;SDS011;3250;42.694;23.278;2023-03-01T06:31:36;3.73;;;2.43;;
6434;SDS011;3250;42.694;23.278;2023-03-01T06:34:02;4.00;;;2.63;;
6434;SDS011;3250;42.694;23.278;2023-03-01T06:36:28;2.93;;;2.57;;
6434;SDS011;3250;42.694;23.278;2023-03-01T06:38:53;3.83;;;2.50;;
6434;SDS011;3250;42.694;23.278;2023-03-01T06:41:18;3.47;;;2.57;;
6434;SDS011;3250;42.694;23.278;2023-03-01T06:43:44;1.93;;;1.80;;
6434;SDS011;3250;42.694;23.278;2023-03-01T06:46:09;5.50;;;2.47;;
6434;SDS011;3250;42.694;23.278;2023-03-01T06:48:35;4.20;;;2.10;;
6434;SDS011;3250;42.694;23.278;2023-03-01T06:51:00;4.07;;;1.70;;
6434;SDS011;3250;42.694;23.278;2023-03-01T06:53:27;2.13;;;1.93;;
6434;SDS011;3250;42.694;23.278;2023-03-01T06:55:56;3.30;;;2.10;;
6434;SDS011;3250;42.694;23.278;2023-03-01T06:58:22;2.80;;;2.50;;
6434;SDS011;3250;42.694;23.278;2023-03-01T07:00:48;5.70;;;2.90;;
6434;SDS011;3250;42.694;23.278;2023-03-01T07:03:13;4.73;;;2.40;;
6434;SDS011;3250;42.694;23.278;2023-03-01T07:05:39;3.33;;;1.90;;
6434;SDS011;3250;42.694;23.278;2023-03-01T07:08:04;3.60;;;2.30;;
6434;SDS011;3250;42.694;23.278;2023-03-01T07:10:30;6.17;;;2.17;;
6434;SDS011;3250;42.694;23.278;2023-03-01T07:12:56;3.37;;;2.10;;
6434;SDS011;3250;42.694;23.278;2023-03-01T07:15:22;2.53;;;1.90;;
6434;SDS011;3250;42.694;23.278;2023-03-01T07:17:47;4.90;;;2.33;;
6434;SDS011;3250;42.694;23.278;2023-03-01T07:20:15;2.10;;;1.90;;
6434;SDS011;3250;42.694;23.278;2023-03-01T07:22:41;2.37;;;2.10;;
6434;SDS011;3250;42.694;23.278;2023-03-01T07:25:07;1.80;;;1.70;;
6434;SDS011;3250;42.694;23.278;2023-03-01T07:27:33;2.77;;;2.20;;
6434;SDS011;3250;42.694;23.278;2023-03-01T07:29:59;4.60;;;2.10;;
6434;SDS011;3250;42.694;23.278;2023-03-01T07:32:24;3.97;;;1.73;;
6434;SDS011;3250;42.694;23.278;2023-03-01T07:34:50;1.70;;;1.60;;
6434;SDS011;3250;42.694;23.278;2023-03-01T07:37:16;5.03;;;1.97;;
6434;SDS011;3250;42.694;23.278;2023-03-01T07:39:42;2.30;;;2.10;;
6434;SDS011;3250;42.694;23.278;2023-03-01T07:42:07;2.20;;;2.00;;
6434;SDS011;3250;42.694;23.278;2023-03-01T07:44:33;3.07;;;2.27;;
6434;SDS011;3250;42.694;23.278;2023-03-01T07:46:59;3.33;;;2.00;;
6434;SDS011;3250;42.694;23.278;2023-03-01T07:49:25;3.07;;;2.30;;
6434;SDS011;3250;42.694;23.278;2023-03-01T07:51:52;4.87;;;2.20;;
6434;SDS011;3250;42.694;23.278;2023-03-01T07:54:17;6.67;;;2.40;;
6434;SDS011;3250;42.694;23.278;2023-03-01T07:56:43;2.53;;;2.00;;
6434;SDS011;3250;42.694;23.278;2023-03-01T07:59:08;6.17;;;2.50;;
6434;SDS011;3250;42.694;23.278;2023-03-01T08:01:34;5.70;;;2.40;;
6434;SDS011;3250;42.694;23.278;2023-03-01T08:04:00;3.53;;;2.30;;
6434;SDS011;3250;42.694;23.278;2023-03-01T08:06:26;5.60;;;2.60;;
6434;SDS011;3250;42.694;23.278;2023-03-01T08:08:52;3.67;;;2.23;;
6434;SDS011;3250;42.694;23.278;2023-03-01T08:11:20;3.40;;;2.27;;
6434;SDS011;3250;42.694;23.278;2023-03-01T08:13:47;3.73;;;2.30;;
6434;SDS011;3250;42.694;23.278;2023-03-01T08:16:14;2.13;;;1.93;;
6434;SDS011;3250;42.694;23.278;2023-03-01T08:18:40;5.40;;;2.30;;
6434;SDS011;3250;42.694;23.278;2023-03-01T08:21:08;25.97;;;3.87;;
6434;SDS011;3250;42.694;23.278;2023-03-01T08:23:35;4.53;;;2.30;;
6434;SDS011;3250;42.694;23.278;2023-03-01T08:26:10;2.33;;;2.13;;
6434;SDS011;3250;42.694;23.278;2023-03-01T08:28:37;3.17;;;1.50;;
6434;SDS011;3250;42.694;23.278;2023-03-01T08:31:03;4.07;;;2.97;;
6434;SDS011;3250;42.694;23.278;2023-03-01T08:33:37;4.40;;;2.37;;
6434;SDS011;3250;42.694;23.278;2023-03-01T08:36:03;4.83;;;2.00;;
6434;SDS011;3250;42.694;23.278;2023-03-01T08:38:32;4.43;;;2.63;;
6434;SDS011;3250;42.694;23.278;2023-03-01T08:41:04;3.30;;;2.77;;
6434;SDS011;3250;42.694;23.278;2023-03-01T08:43:32;4.93;;;2.80;;
6434;SDS011;3250;42.694;23.278;2023-03-01T08:45:57;3.10;;;2.70;;
6434;SDS011;3250;42.694;23.278;2023-03-01T08:48:23;6.90;;;3.37;;
6434;SDS011;3250;42.694;23.278;2023-03-01T08:50:48;3.53;;;3.00;;
6434;SDS011;3250;42.694;23.278;2023-03-01T08:53:13;6.03;;;3.30;;
6434;SDS011;3250;42.694;23.278;2023-03-01T08:55:39;3.07;;;2.77;;
6434;SDS011;3250;42.694;23.278;2023-03-01T08:58:04;3.40;;;3.10;;
6434;SDS011;3250;42.694;23.278;2023-03-01T09:00:30;5.23;;;3.17;;
6434;SDS011;3250;42.694;23.278;2023-03-01T09:02:55;4.00;;;2.60;;
6434;SDS011;3250;42.694;23.278;2023-03-01T09:05:21;4.13;;;3.00;;
6434;SDS011;3250;42.694;23.278;2023-03-01T09:07:46;2.93;;;2.53;;
6434;SDS011;3250;42.694;23.278;2023-03-01T09:10:12;3.83;;;2.27;;
6434;SDS011;3250;42.694;23.278;2023-03-01T09:12:37;3.17;;;2.27;;
6434;SDS011;3250;42.694;23.278;2023-03-01T09:15:03;2.80;;;2.17;;
6434;SDS011;3250;42.694;23.278;2023-03-01T09:17:28;3.00;;;2.07;;
6434;SDS011;3250;42.694;23.278;2023-03-01T09:19:54;3.17;;;2.30;;
6434;SDS011;3250;42.694;23.278;2023-03-01T09:22:19;3.23;;;2.13;;
6434;SDS011;3250;42.694;23.278;2023-03-01T09:24:45;2.20;;;1.90;;
6434;SDS011;3250;42.694;23.278;2023-03-01T09:27:10;2.87;;;2.27;;
6434;SDS011;3250;42.694;23.278;2023-03-01T09:29:37;5.93;;;2.20;;
6434;SDS011;3250;42.694;23.278;2023-03-01T09:32:03;2.20;;;2.00;;
6434;SDS011;3250;42.694;23.278;2023-03-01T09:34:29;3.40;;;1.97;;
6434;SDS011;3250;42.694;23.278;2023-03-01T09:36:54;2.90;;;2.10;;
6434;SDS011;3250;42.694;23.278;2023-03-01T09:39:20;2.73;;;2.33;;
6434;SDS011;3250;42.694;23.278;2023-03-01T09:42:04;2.17;;;1.70;;
6434;SDS011;3250;42.694;23.278;2023-03-01T09:46:58;1.70;;;1.60;;
6434;SDS011;3250;42.694;23.278;2023-03-01T09:49:26;2.17;;;1.87;;
6434;SDS011;3250;42.694;23.278;2023-03-01T09:54:39;2.43;;;1.80;;
6434;SDS011;3250;42.694;23.278;2023-03-01T09:57:18;2.00;;;1.70;;
6434;SDS011;3250;42.694;23.278;2023-03-01T10:10:33;1.70;;;1.60;;
6434;SDS011;3250;42.694;23.278;2023-03-01T10:13:03;1.70;;;1.43;;
6434;SDS011;3250;42.694;23.278;2023-03-01T10:15:52;5.47;;;1.70;;
6434;SDS011;3250;42.694;23.278;2023-03-01T10:18:27;1.90;;;1.60;;
6434;SDS011;3250;42.694;23.278;2023-03-01T10:23:43;2.37;;;1.83;;
6434;SDS011;3250;42.694;23.278;2023-03-01T10:26:12;4.07;;;1.90;;
6434;SDS011;3250;42.694;23.278;2023-03-01T10:31:50;4.53;;;1.73;;
6434;SDS011;3250;42.694;23.278;2023-03-01T10:36:52;3.40;;;2.13;;
6434;SDS011;3250;42.694;23.278;2023-03-01T10:39:24;4.17;;;2.40;;
6434;SDS011;3250;42.694;23.278;2023-03-01T10:41:55;2.37;;;2.10;;
6434;SDS011;3250;42.694;23.278;2023-03-01T10:44:45;2.50;;;1.80;;
6434;SDS011;3250;42.694;23.278;2023-03-01T10:47:25;3.17;;;1.90;;
6434;SDS011;3250;42.694;23.278;2023-03-01T10:52:26;2.97;;;1.93;;
6434;SDS011;3250;42.694;23.278;2023-03-01T10:54:58;3.67;;;2.00;;
6434;SDS011;3250;42.694;23.278;2023-03-01T11:00:02;1.83;;;1.63;;
6434;SDS011;3250;42.694;23.278;2023-03-01T11:05:23;4.60;;;2.13;;
6434;SDS011;3250;42.694;23.278;2023-03-01T11:07:53;1.87;;;1.50;;
6434;SDS011;3250;42.694;23.278;2023-03-01T11:10:23;2.50;;;1.40;;
6434;SDS011;3250;42.694;23.278;2023-03-01T11:12:52;3.47;;;1.70;;
6434;SDS011;3250;42.694;23.278;2023-03-01T11:15:30;3.43;;;1.83;;
6434;SDS011;3250;42.694;23.278;2023-03-01T11:17:56;6.33;;;2.73;;
6434;SDS011;3250;42.694;23.278;2023-03-01T11:20:35;2.43;;;1.87;;
6434;SDS011;3250;42.694;23.278;2023-03-01T11:23:04;3.50;;;1.90;;
6434;SDS011;3250;42.694;23.278;2023-03-01T11:25:37;4.13;;;1.77;;
6434;SDS011;3250;42.694;23.278;2023-03-01T11:28:07;3.07;;;1.53;;
6434;SDS011;3250;42.694;23.278;2023-03-01T11:39:02;3.10;;;2.20;;
6434;SDS011;3250;42.694;23.278;2023-03-01T11:41:36;2.23;;;1.87;;
6434;SDS011;3250;42.694;23.278;2023-03-01T11:44:10;1.40;;;1.30;;
6434;SDS011;3250;42.694;23.278;2023-03-01T11:54:37;3.23;;;1.90;;
6434;SDS011;3250;42.694;23.278;2023-03-01T11:57:07;1.83;;;1.70;;
6434;SDS011;3250;42.694;23.278;2023-03-01T12:08:24;2.30;;;2.10;;
6434;SDS011;3250;42.694;23.278;2023-03-01T12:29:59;2.77;;;2.43;;
6434;SDS011;3250;42.694;23.278;2023-03-01T12:37:58;5.73;;;2.70;;
6434;SDS011;3250;42.694;23.278;2023-03-01T12:46:23;3.13;;;2.60;;
6434;SDS011;3250;42.694;23.278;2023-03-01T12:51:54;2.43;;;1.80;;
6434;SDS011;3250;42.694;23.278;2023-03-01T12:54:26;5.23;;;2.97;;
6434;SDS011;3250;42.694;23.278;2023-03-01T12:56:53;7.13;;;2.80;;
6434;SDS011;3250;42.694;23.278;2023-03-01T13:02:22;4.00;;;2.47;;
6434;SDS011;3250;42.694;23.278;2023-03-01T13:05:17;8.80;;;3.07;;
6434;SDS011;3250;42.694;23.278;2023-03-01T13:13:13;7.07;;;2.40;;
6434;SDS011;3250;42.694;23.278;2023-03-01T13:15:46;2.83;;;2.27;;
6434;SDS011;3250;42.694;23.278;2023-03-01T13:47:16;4.93;;;2.73;;
6434;SDS011;3250;42.694;23.278;2023-03-01T13:49:50;5.37;;;2.53;;
6434;SDS011;3250;42.694;23.278;2023-03-01T13:55:30;4.20;;;2.70;;
6434;SDS011;3250;42.694;23.278;2023-03-01T14:00:57;3.07;;;2.10;;
6434;SDS011;3250;42.694;23.278;2023-03-01T14:03:23;3.63;;;2.63;;
6434;SDS011;3250;42.694;23.278;2023-03-01T14:08:28;5.20;;;3.03;;
6434;SDS011;3250;42.694;23.278;2023-03-01T14:14:18;5.57;;;2.60;;
6434;SDS011;3250;42.694;23.278;2023-03-01T14:16:27;5.77;;;2.00;;
6434;SDS011;3250;42.694;23.278;2023-03-01T14:21:43;9.20;;;2.60;;
6434;SDS011;3250;42.694;23.278;2023-03-01T14:24:20;4.37;;;2.60;;
6434;SDS011;3250;42.694;23.278;2023-03-01T14:26:47;5.40;;;2.37;;
6434;SDS011;3250;42.694;23.278;2023-03-01T14:29:23;3.50;;;2.40;;
6434;SDS011;3250;42.694;23.278;2023-03-01T14:31:50;4.33;;;2.43;;
6434;SDS011;3250;42.694;23.278;2023-03-01T14:34:19;3.37;;;2.20;;
6434;SDS011;3250;42.694;23.278;2023-03-01T14:36:46;2.93;;;2.60;;
6434;SDS011;3250;42.694;23.278;2023-03-01T14:39:24;3.73;;;2.23;;
6434;SDS011;3250;42.694;23.278;2023-03-01T14:41:51;4.57;;;2.23;;
6434;SDS011;3250;42.694;23.278;2023-03-01T14:44:21;5.93;;;2.73;;
6434;SDS011;3250;42.694;23.278;2023-03-01T14:46:51;2.30;;;1.70;;
6434;SDS011;3250;42.694;23.278;2023-03-01T14:49:24;8.10;;;2.77;;
6434;SDS011;3250;42.694;23.278;2023-03-01T14:51:58;4.20;;;3.23;;
6434;SDS011;3250;42.694;23.278;2023-03-01T14:54:32;3.80;;;2.47;;
6434;SDS011;3250;42.694;23.278;2023-03-01T14:57:05;5.33;;;2.57;;
6434;SDS011;3250;42.694;23.278;2023-03-01T14:59:32;4.37;;;2.13;;
6434;SDS011;3250;42.694;23.278;2023-03-01T15:02:00;4.33;;;2.10;;
6434;SDS011;3250;42.694;23.278;2023-03-01T15:04:26;3.77;;;2.60;;
6434;SDS011;3250;42.694;23.278;2023-03-01T15:06:54;5.07;;;2.37;;
6434;SDS011;3250;42.694;23.278;2023-03-01T15:09:29;4.10;;;2.30;;
6434;SDS011;3250;42.694;23.278;2023-03-01T15:11:59;5.33;;;2.37;;
6434;SDS011;3250;42.694;23.278;2023-03-01T15:14:28;2.87;;;1.90;;
6434;SDS011;3250;42.694;23.278;2023-03-01T15:17:01;6.38;;;2.60;;
6434;SDS011;3250;42.694;23.278;2023-03-01T15:19:26;4.43;;;2.63;;
6434;SDS011;3250;42.694;23.278;2023-03-01T15:21:53;3.80;;;2.75;;
6434;SDS011;3250;42.694;23.278;2023-03-01T15:24:25;3.70;;;2.67;;
6434;SDS011;3250;42.694;23.278;2023-03-01T15:29:23;6.17;;;2.37;;
6434;SDS011;3250;42.694;23.278;2023-03-01T15:32:40;4.67;;;2.43;;
6434;SDS011;3250;42.694;23.278;2023-03-01T15:34:52;7.47;;;3.00;;
6434;SDS011;3250;42.694;23.278;2023-03-01T15:40:02;5.70;;;2.97;;
6434;SDS011;3250;42.694;23.278;2023-03-01T15:47:57;4.70;;;3.10;;
6434;SDS011;3250;42.694;23.278;2023-03-01T15:50:29;6.97;;;3.43;;
6434;SDS011;3250;42.694;23.278;2023-03-01T15:52:59;5.25;;;3.08;;
6434;SDS011;3250;42.694;23.278;2023-03-01T15:55:27;5.75;;;3.60;;
6434;SDS011;3250;42.694;23.278;2023-03-01T15:58:02;6.95;;;3.13;;
6434;SDS011;3250;42.694;23.278;2023-03-01T16:00:32;5.40;;;2.88;;
6434;SDS011;3250;42.694;23.278;2023-03-01T16:02:58;5.45;;;2.90;;
6434;SDS011;3250;42.694;23.278;2023-03-01T16:05:25;8.77;;;4.63;;
6434;SDS011;3250;42.694;23.278;2023-03-01T16:07:53;3.25;;;2.60;;
6434;SDS011;3250;42.694;23.278;2023-03-01T16:10:19;5.15;;;3.03;;
6434;SDS011;3250;42.694;23.278;2023-03-01T16:12:45;5.80;;;3.10;;
6434;SDS011;3250;42.694;23.278;2023-03-01T16:15:22;5.40;;;3.20;;
6434;SDS011;3250;42.694;23.278;2023-03-01T16:17:50;5.00;;;3.08;;
6434;SDS011;3250;42.694;23.278;2023-03-01T16:20:17;6.80;;;3.17;;
6434;SDS011;3250;42.694;23.278;2023-03-01T16:22:43;5.50;;;2.57;;
6434;SDS011;3250;42.694;23.278;2023-03-01T16:25:10;6.82;;;2.90;;
6434;SDS011;3250;42.694;23.278;2023-03-01T16:27:37;4.95;;;2.63;;
6434;SDS011;3250;42.694;23.278;2023-03-01T16:30:04;7.18;;;3.08;;
6434;SDS011;3250;42.694;23.278;2023-03-01T16:32:31;4.40;;;3.20;;
6434;SDS011;3250;42.694;23.278;2023-03-01T16:34:56;4.90;;;3.15;;
6434;SDS011;3250;42.694;23.278;2023-03-01T16:37:22;4.97;;;3.40;;
6434;SDS011;3250;42.694;23.278;2023-03-01T16:39:47;5.97;;;3.50;;
6434;SDS011;3250;42.694;23.278;2023-03-01T16:42:16;4.53;;;3.20;;
6434;SDS011;3250;42.694;23.278;2023-03-01T16:44:42;5.20;;;3.10;;
6434;SDS011;3250;42.694;23.278;2023-03-01T16:47:08;5.73;;;3.37;;
6434;SDS011;3250;42.694;23.278;2023-03-01T16:49:33;7.67;;;4.20;;
6434;SDS011;3250;42.694;23.278;2023-03-01T16:51:58;8.67;;;3.53;;
6434;SDS011;3250;42.694;23.278;2023-03-01T16:54:24;7.57;;;4.03;;
6434;SDS011;3250;42.694;23.278;2023-03-01T16:56:49;6.47;;;3.63;;
6434;SDS011;3250;42.694;23.278;2023-03-01T16:59:15;5.57;;;2.90;;
6434;SDS011;3250;42.694;23.278;2023-03-01T17:01:41;5.90;;;3.63;;
6434;SDS011;3250;42.694;23.278;2023-03-01T17:04:09;7.10;;;3.55;;
6434;SDS011;3250;42.694;23.278;2023-03-01T17:06:36;3.45;;;2.63;;
6434;SDS011;3250;42.694;23.278;2023-03-01T17:09:02;5.87;;;3.53;;
6434;SDS011;3250;42.694;23.278;2023-03-01T17:11:27;5.40;;;3.57;;
6434;SDS011;3250;42.694;23.278;2023-03-01T17:13:59;9.67;;;3.90;;
6434;SDS011;3250;42.694;23.278;2023-03-01T17:16:24;10.77;;;4.10;;
6434;SDS011;3250;42.694;23.278;2023-03-01T17:18:52;6.87;;;4.00;;
6434;SDS011;3250;42.694;23.278;2023-03-01T17:21:18;7.30;;;4.20;;
6434;SDS011;3250;42.694;23.278;2023-03-01T17:23:44;6.97;;;3.33;;
6434;SDS011;3250;42.694;23.278;2023-03-01T17:26:11;8.27;;;4.63;;
6434;SDS011;3250;42.694;23.278;2023-03-01T17:28:37;6.88;;;4.38;;
6434;SDS011;3250;42.694;23.278;2023-03-01T17:31:05;8.63;;;4.10;;
6434;SDS011;3250;42.694;23.278;2023-03-01T17:33:31;6.45;;;4.53;;
6434;SDS011;3250;42.694;23.278;2023-03-01T17:35:57;6.95;;;4.70;;
6434;SDS011;3250;42.694;23.278;2023-03-01T17:38:23;6.57;;;3.67;;
6434;SDS011;3250;42.694;23.278;2023-03-01T17:40:49;9.17;;;5.23;;
6434;SDS011;3250;42.694;23.278;2023-03-01T17:43:15;6.87;;;4.03;;
6434;SDS011;3250;42.694;23.278;2023-03-01T17:45:41;10.33;;;5.33;;
6434;SDS011;3250;42.694;23.278;2023-03-01T17:48:11;7.78;;;4.95;;
6434;SDS011;3250;42.694;23.278;2023-03-01T17:50:37;9.05;;;4.95;;